< < Back
Terminal Aerodrome Forecast


Current Version              Previous Versions:   1  2  3  4  5  6  7  8  9  

Terminal Aerodrome Forecast

981
FTUS42 KMLB 301120
TAFMCO
TAF
KMCO 301120Z 3012/3112 27005KT P6SM FEW070 FEW110 SCT250
     FM301400 VRB05KT P6SM SCT025 SCT050
     FM302100 06008KT P6SM VCTS SCT050CB BKN250
     FM310000 12006KT P6SM FEW030 BKN120=

Latest METAR

429
SAUS70 KWBC 301600 RRA
MTRMCO
METAR KMCO 301553Z 21003KT 10SM SCT035 29/21 A3001 RMK AO2 SLP161
T02940206


USA.gov is the U.S. government's official web portal to all federal, state and local government web resources and services.